Time;durP1;ratioP1;P1;durP2;ratioP2;P2;SDS_P1;SDS_P2;PMS_P1;PMS_P2;Temp;Humidity;BMP_temperature;BMP_pressure;BME280_temperature;BME280_humidity;BME280_pressure;Samples;Min_cycle;Max_cycle;Signal;HPM_P1;HPM_P2
2022/12/20 00:01:30;;;;;;;32.10;19.45;;;;;;;4.68;92.46;98689.69;4155989;28;20257;-85
2022/12/20 00:03:33;;;;;;;32.13;18.08;;;;;;;4.68;92.45;98689.69;4152398;28;20234;-86
2022/12/20 00:05:41;;;;;;;24.00;16.92;;;;;;;4.68;91.41;98683.69;4142768;28;20647;-86
2022/12/20 00:07:44;;;;;;;31.70;18.50;;;;;;;4.67;92.66;98682.81;4185314;28;20210;-86
2022/12/20 00:09:47;;;;;;;27.73;18.40;;;;;;;4.66;91.73;98681.16;4153231;28;20214;-86
2022/12/20 00:11:50;;;;;;;32.90;20.60;;;;;;;4.65;91.59;98676.88;4154695;28;20302;-86
2022/12/20 00:13:53;;;;;;;30.67;20.00;;;;;;;4.66;92.37;98685.44;4141368;28;20210;-87
2022/12/20 00:16:05;;;;;;;30.85;19.70;;;;;;;4.65;91.81;98684.63;4156113;28;20696;-89
2022/12/20 00:18:09;;;;;;;30.60;17.98;;;;;;;4.63;92.44;98681.25;4136331;28;20212;-88
2022/12/20 00:20:13;;;;;;;30.95;19.50;;;;;;;4.63;92.44;98673.50;4150497;28;20255;-88
2022/12/20 00:22:16;;;;;;;27.77;17.95;;;;;;;4.62;92.77;98653.75;4133634;28;20701;-87
2022/12/20 00:24:19;;;;;;;27.48;18.27;;;;;;;4.63;92.26;98650.28;4154126;28;20677;-89
2022/12/20 00:26:30;;;;;;;28.15;16.45;;;;;;;4.64;91.52;98656.28;4146205;28;20223;-88
2022/12/20 00:28:43;;;;;;;27.27;17.60;;;;;;;4.63;92.38;98649.41;4152107;28;20216;-88
2022/12/20 00:30:46;;;;;;;41.30;24.33;;;;;;;4.61;92.06;98646.88;4153608;28;20690;-87
2022/12/20 00:32:57;;;;;;;25.33;18.30;;;;;;;4.60;91.72;98634.88;4186445;28;20292;-88
2022/12/20 00:35:01;;;;;;;31.38;19.63;;;;;;;4.62;92.74;98642.59;4169148;28;20211;-88
2022/12/20 00:37:06;;;;;;;34.95;22.83;;;;;;;4.61;92.29;98646.88;4153204;28;20215;-88
2022/12/20 00:39:10;;;;;;;28.35;19.83;;;;;;;4.62;92.93;98648.56;4155885;28;20561;-88
2022/12/20 00:41:15;;;;;;;28.00;18.48;;;;;;;4.62;92.58;98646.00;4157257;28;20207;-87
2022/12/20 00:43:18;;;;;;;33.45;21.90;;;;;;;4.60;92.66;98649.50;4157026;28;20210;-89
2022/12/20 00:45:22;;;;;;;26.50;15.68;;;;;;;4.58;92.07;98641.81;4156348;28;20245;-88
2022/12/20 00:47:25;;;;;;;24.05;15.50;;;;;;;4.59;92.07;98632.34;4155557;28;20254;-87
2022/12/20 00:49:28;;;;;;;25.30;15.90;;;;;;;4.60;91.93;98634.03;4153064;28;21946;-87
2022/12/20 00:51:32;;;;;;;22.55;15.85;;;;;;;4.60;92.64;98629.72;4153588;28;20243;-88
2022/12/20 00:53:35;;;;;;;29.00;15.65;;;;;;;4.60;92.73;98624.56;4148822;28;20211;-88
2022/12/20 00:55:41;;;;;;;23.67;16.25;;;;;;;4.59;92.46;98633.19;4156690;28;20214;-88
2022/12/20 00:57:44;;;;;;;25.48;15.73;;;;;;;4.59;92.53;98634.94;4173974;28;20667;-88
2022/12/20 00:59:47;;;;;;;24.02;15.95;;;;;;;4.58;92.10;98635.81;4172489;28;20702;-88
2022/12/20 01:01:51;;;;;;;21.30;15.35;;;;;;;4.58;91.78;98654.72;4170022;28;20298;-88
2022/12/20 01:03:55;;;;;;;25.88;16.92;;;;;;;4.60;92.61;98654.69;4153382;28;20229;-88
2022/12/20 01:06:00;;;;;;;34.05;17.15;;;;;;;4.60;92.76;98644.34;4153429;28;20246;-88
2022/12/20 01:08:05;;;;;;;29.98;17.83;;;;;;;4.62;92.42;98633.09;4155774;28;20237;-88
2022/12/20 01:10:10;;;;;;;31.88;21.38;;;;;;;4.66;92.87;98634.66;4142847;28;21279;-89
2022/12/20 01:12:19;;;;;;;29.05;20.73;;;;;;;4.69;92.66;98639.69;4172346;28;21683;-89
2022/12/20 01:14:22;;;;;;;25.20;17.10;;;;;;;4.69;92.85;98650.03;4154655;28;20211;-88
2022/12/20 01:16:28;;;;;;;23.33;15.48;;;;;;;4.68;93.21;98631.09;4158252;28;20306;-88
2022/12/20 01:18:33;;;;;;;21.63;15.02;;;;;;;4.68;92.72;98607.88;4155601;28;20207;-88
2022/12/20 01:20:36;;;;;;;24.55;17.98;;;;;;;4.68;92.02;98611.38;4144990;28;20330;-89
2022/12/20 01:22:40;;;;;;;22.98;16.50;;;;;;;4.62;92.41;98638.25;4156921;28;20307;-87
2022/12/20 01:24:51;;;;;;;23.30;16.38;;;;;;;4.61;92.18;98640.88;4172351;28;20213;-89
2022/12/20 01:26:54;;;;;;;30.17;18.33;;;;;;;4.62;92.22;98656.31;4159753;28;20225;-89
2022/12/20 01:29:00;;;;;;;37.45;18.88;;;;;;;4.64;92.50;98662.25;4160098;28;20211;-88
2022/12/20 01:31:07;;;;;;;79.55;32.50;;;;;;;4.68;93.05;98656.09;4155519;28;20283;-88
2022/12/20 01:33:10;;;;;;;42.88;20.80;;;;;;;4.69;92.80;98656.06;4161678;28;20298;-89
2022/12/20 01:35:13;;;;;;;34.50;17.88;;;;;;;4.71;92.88;98663.75;4174425;28;20294;-89
2022/12/20 01:37:17;;;;;;;30.42;18.45;;;;;;;4.71;92.38;98662.00;4142205;28;20296;-89
2022/12/20 01:39:20;;;;;;;43.90;22.30;;;;;;;4.72;92.20;98652.50;4142165;28;20214;-88
2022/12/20 01:41:26;;;;;;;30.63;17.77;;;;;;;4.69;93.32;98655.19;4151840;28;20258;-89
2022/12/20 01:43:46;;;;;;;31.75;17.15;;;;;;;4.69;92.47;98656.06;4135912;28;20688;-89
2022/12/20 01:45:49;;;;;;;38.80;19.98;;;;;;;4.70;92.76;98651.72;4154303;28;20261;-89
2022/12/20 01:47:52;;;;;;;28.52;16.85;;;;;;;4.70;92.57;98643.97;4142129;28;20211;-87
2022/12/20 01:49:56;;;;;;;22.95;13.45;;;;;;;4.69;92.52;98637.97;4174775;28;20204;-89
2022/12/20 01:52:03;;;;;;;21.75;14.45;;;;;;;4.70;92.69;98639.63;4156413;28;20233;-88
2022/12/20 01:54:10;;;;;;;23.08;14.43;;;;;;;4.71;92.42;98630.16;4154085;28;20563;-89
2022/12/20 01:56:13;;;;;;;19.70;13.95;;;;;;;4.70;92.42;98628.47;4170075;28;20221;-89
2022/12/20 01:58:19;;;;;;;21.52;14.60;;;;;;;4.72;91.89;98624.06;4187802;28;20681;-89
2022/12/20 02:00:23;;;;;;;28.95;17.90;;;;;;;4.72;91.95;98624.06;4157742;28;20939;-89
2022/12/20 02:02:26;;;;;;;32.80;20.63;;;;;;;4.72;92.40;98618.91;4157277;28;20204;-89
2022/12/20 02:04:30;;;;;;;26.95;17.33;;;;;;;4.71;92.55;98617.25;4139472;28;20652;-88
2022/12/20 02:06:33;;;;;;;23.17;15.85;;;;;;;4.69;92.47;98611.28;4186856;28;20236;-89
2022/12/20 02:08:36;;;;;;;21.38;15.00;;;;;;;4.69;93.08;98617.31;4138088;28;20220;-89
2022/12/20 02:10:50;;;;;;;23.50;15.40;;;;;;;4.67;92.02;98620.84;4151588;28;20693;-90
2022/12/20 02:12:59;;;;;;;22.63;15.43;;;;;;;4.67;92.54;98620.00;4142810;28;20216;-88
2022/12/20 02:15:13;;;;;;;19.90;13.60;;;;;;;4.68;91.94;98607.03;4153786;28;20578;-89
2022/12/20 02:17:24;;;;;;;20.25;13.85;;;;;;;4.67;92.39;98597.59;4157584;28;20196;-89
2022/12/20 02:19:54;;;;;;;19.65;13.70;;;;;;;4.68;92.26;98619.13;4190174;28;20307;-88
2022/12/20 02:22:02;;;;;;;17.92;12.73;;;;;;;4.66;91.59;98616.59;4163824;28;20268;-89
2022/12/20 02:24:37;;;;;;;17.38;12.15;;;;;;;4.65;92.10;98619.22;4168344;28;20303;-89
2022/12/20 02:27:07;;;;;;;20.17;12.65;;;;;;;4.64;91.94;98589.13;4167535;28;20218;-88
2022/12/20 02:29:22;;;;;;;17.98;12.15;;;;;;;4.60;92.50;98579.78;4149314;28;21072;-89
2022/12/20 02:31:36;;;;;;;25.00;13.82;;;;;;;4.54;92.08;98593.78;4165707;28;20350;-87
2022/12/20 02:33:42;;;;;;;18.15;12.95;;;;;;;4.52;92.98;98582.66;4163619;28;20227;-89
2022/12/20 02:35:45;;;;;;;19.70;14.13;;;;;;;4.51;92.71;98580.13;4151001;28;20208;-89
2022/12/20 02:37:54;;;;;;;20.38;12.52;;;;;;;4.51;92.54;98587.88;4154332;28;20211;-89
2022/12/20 02:39:57;;;;;;;19.85;13.13;;;;;;;4.53;92.54;98599.00;4167947;28;20203;-89
2022/12/20 02:42:04;;;;;;;19.35;12.63;;;;;;;4.53;92.32;98583.53;4157774;28;20261;-89
2022/12/20 02:46:34;;;;;;;16.63;11.75;;;;;;;4.58;93.37;98584.19;4156377;28;20219;-88
2022/12/20 02:48:37;;;;;;;19.08;11.80;;;;;;;4.59;92.41;98560.88;4180173;28;20298;-89
2022/12/20 02:50:44;;;;;;;17.83;12.27;;;;;;;4.59;92.52;98573.78;4136178;28;20212;-89
2022/12/20 02:52:48;;;;;;;17.35;11.65;;;;;;;4.58;93.17;98582.44;4158053;28;20211;-89
2022/12/20 02:54:52;;;;;;;14.93;10.88;;;;;;;4.56;92.61;98576.50;4170665;28;20213;-89
2022/12/20 02:56:57;;;;;;;17.67;12.63;;;;;;;4.58;92.53;98579.84;4157598;28;20208;-89
2022/12/20 02:59:03;;;;;;;16.08;11.15;;;;;;;4.58;92.74;98571.28;4149855;28;20209;-89
2022/12/20 03:01:10;;;;;;;17.75;11.80;;;;;;;4.58;92.30;98563.53;4153262;28;20293;-88
2022/12/20 03:03:24;;;;;;;16.80;10.68;;;;;;;4.58;93.02;98579.03;4142304;28;20227;-89
2022/12/20 03:05:28;;;;;;;15.07;11.10;;;;;;;4.57;92.68;98573.03;4142247;28;20273;-89
2022/12/20 03:07:34;;;;;;;15.88;10.80;;;;;;;4.56;92.77;98573.91;4142857;28;20291;-89
2022/12/20 03:09:38;;;;;;;15.15;10.52;;;;;;;4.55;92.28;98567.06;4136987;28;20231;-89
2022/12/20 03:11:41;;;;;;;16.98;12.00;;;;;;;4.54;91.88;98580.88;4167047;28;20206;-90
2022/12/20 03:13:44;;;;;;;19.13;11.00;;;;;;;4.52;92.47;98587.00;4132594;28;20211;-88
2022/12/20 03:15:48;;;;;;;17.08;11.50;;;;;;;4.50;92.06;98576.72;4143385;28;20208;-89
2022/12/20 03:17:51;;;;;;;14.88;10.55;;;;;;;4.50;91.93;98565.56;4156467;28;20208;-89
2022/12/20 03:19:57;;;;;;;18.45;11.95;;;;;;;4.49;91.72;98556.13;4144204;28;20203;-89
2022/12/20 03:22:00;;;;;;;14.75;10.77;;;;;;;4.49;92.09;98559.53;4157571;28;20270;-89
2022/12/20 03:24:06;;;;;;;17.27;11.60;;;;;;;4.49;91.82;98556.13;4152430;28;20207;-89
2022/12/20 03:26:09;;;;;;;15.63;11.00;;;;;;;4.49;91.80;98561.28;4167657;28;20574;-89
2022/12/20 03:28:21;;;;;;;14.85;10.50;;;;;;;4.49;92.15;98563.88;4152448;28;20308;-89
2022/12/20 03:30:24;;;;;;;19.00;11.30;;;;;;;4.51;92.95;98557.75;4154917;28;20215;-89
2022/12/20 03:32:27;;;;;;;16.05;11.75;;;;;;;4.51;92.70;98536.22;4165922;28;20217;-89
2022/12/20 03:34:31;;;;;;;14.75;10.57;;;;;;;4.51;92.88;98544.84;4173707;28;20282;-88
2022/12/20 03:36:37;;;;;;;17.98;11.65;;;;;;;4.51;92.92;98544.84;4168851;28;20203;-89
2022/12/20 03:38:41;;;;;;;15.77;10.90;;;;;;;4.52;92.69;98540.50;4137300;28;20214;-89
2022/12/20 03:40:45;;;;;;;15.75;11.48;;;;;;;4.52;92.60;98538.75;4168531;28;20750;-88
2022/12/20 03:42:53;;;;;;;14.68;10.68;;;;;;;4.55;92.87;98538.66;4168661;28;20658;-88
2022/12/20 03:44:56;;;;;;;22.20;13.10;;;;;;;4.55;92.79;98541.22;4138985;28;20238;-89
2022/12/20 03:47:02;;;;;;;17.75;11.38;;;;;;;4.55;92.65;98528.31;4166953;28;20669;-89
2022/12/20 03:49:05;;;;;;;14.50;10.55;;;;;;;4.55;92.82;98548.97;4138662;28;20200;-88
2022/12/20 03:51:16;;;;;;;15.88;11.57;;;;;;;4.55;93.49;98545.56;4171953;28;20251;-89
2022/12/20 03:53:21;;;;;;;16.52;11.02;;;;;;;4.54;92.92;98542.16;4184988;28;21850;-89
2022/12/20 03:55:26;;;;;;;13.63;9.63;;;;;;;4.53;93.04;98548.19;4137534;28;20204;-88
2022/12/20 03:57:29;;;;;;;14.80;11.07;;;;;;;4.55;92.21;98554.13;4162713;28;20219;-89
2022/12/20 03:59:34;;;;;;;15.77;10.90;;;;;;;4.55;93.10;98551.56;4151742;28;20203;-88
2022/12/20 04:01:38;;;;;;;14.05;10.10;;;;;;;4.56;93.18;98566.16;4184842;28;20603;-88
2022/12/20 04:03:42;;;;;;;13.38;10.13;;;;;;;4.56;93.16;98558.41;4138204;28;20227;-88
2022/12/20 04:05:45;;;;;;;14.63;10.20;;;;;;;4.56;93.61;98535.19;4147637;28;20224;-88
2022/12/20 04:07:48;;;;;;;16.55;10.40;;;;;;;4.56;92.83;98535.19;4150669;28;20230;-88
2022/12/20 04:09:53;;;;;;;12.43;9.98;;;;;;;4.59;93.10;98535.06;4172240;28;20824;-89
2022/12/20 04:11:56;;;;;;;14.48;9.57;;;;;;;4.61;93.47;98538.41;4158227;28;20235;-89
2022/12/20 04:13:59;;;;;;;13.65;10.07;;;;;;;4.62;93.71;98532.38;4173221;28;20203;-89
2022/12/20 04:16:02;;;;;;;13.77;9.93;;;;;;;4.62;92.74;98519.44;4141527;28;20215;-88
2022/12/20 04:18:07;;;;;;;12.35;9.25;;;;;;;4.64;93.26;98520.22;4184019;28;20195;-89
2022/12/20 04:20:19;;;;;;;13.48;9.90;;;;;;;4.65;93.93;98518.50;4169086;28;20209;-89
2022/12/20 04:22:36;;;;;;;13.70;10.00;;;;;;;4.65;92.70;98503.00;4155167;28;20230;-88
2022/12/20 04:24:40;;;;;;;14.98;10.30;;;;;;;4.66;93.74;98513.28;4184604;28;20232;-89
2022/12/20 04:27:00;;;;;;;13.52;9.55;;;;;;;4.67;92.74;98506.38;4185225;28;20202;-87
2022/12/20 04:29:04;;;;;;;13.40;8.98;;;;;;;4.67;93.07;98498.63;4143095;28;20235;-89
2022/12/20 04:31:07;;;;;;;13.48;9.15;;;;;;;4.69;92.69;98505.38;4141865;28;20249;-90
2022/12/20 04:33:12;;;;;;;13.45;9.20;;;;;;;4.70;92.96;98502.75;4152280;28;20207;-89
2022/12/20 04:35:16;;;;;;;13.27;9.15;;;;;;;4.71;93.75;98504.44;4156700;28;20211;-89
2022/12/20 04:37:19;;;;;;;15.07;10.10;;;;;;;4.73;93.49;98515.53;4154035;28;20204;-88
2022/12/20 04:39:27;;;;;;;12.05;8.85;;;;;;;4.77;93.65;98509.38;4187840;28;20198;-90
2022/12/20 04:41:48;;;;;;;12.80;9.05;;;;;;;4.77;93.76;98508.53;4156465;28;20214;-89
2022/12/20 04:43:54;;;;;;;13.85;10.35;;;;;;;4.80;93.84;98511.00;4154345;28;20603;-88
2022/12/20 04:45:59;;;;;;;13.75;8.65;;;;;;;4.82;94.03;98517.78;4156501;28;20306;-88
2022/12/20 04:48:03;;;;;;;11.38;8.65;;;;;;;4.84;93.91;98513.41;4172149;28;20314;-88
2022/12/20 04:50:26;;;;;;;11.90;9.00;;;;;;;4.84;92.78;98520.28;4169505;28;20593;-88
2022/12/20 04:54:51;;;;;;;11.25;8.57;;;;;;;4.85;92.60;98507.31;4156740;28;20256;-88
2022/12/20 04:57:00;;;;;;;10.35;8.27;;;;;;;4.85;93.69;98496.97;4158030;28;20222;-88
2022/12/20 04:59:05;;;;;;;24.77;14.90;;;;;;;4.86;93.81;98495.25;4171558;28;20739;-88
2022/12/20 05:01:09;;;;;;;20.67;13.25;;;;;;;4.86;92.96;98490.94;4135180;28;20272;-89
2022/12/20 05:03:20;;;;;;;14.93;10.20;;;;;;;4.85;92.94;98485.81;4148189;28;20212;-88
2022/12/20 05:05:23;;;;;;;13.75;9.30;;;;;;;4.83;93.37;98478.13;4171396;28;20273;-89
2022/12/20 05:07:29;;;;;;;12.52;9.10;;;;;;;4.85;93.05;98480.66;4174630;28;20203;-88
2022/12/20 05:09:32;;;;;;;19.55;10.75;;;;;;;4.86;93.36;98483.19;4161358;28;20716;-88
2022/12/20 05:11:35;;;;;;;19.60;10.85;;;;;;;4.87;93.37;98486.59;4158943;28;20215;-89
2022/12/20 05:13:42;;;;;;;15.18;10.52;;;;;;;4.90;93.12;98478.72;4190226;28;20728;-89
2022/12/20 05:15:50;;;;;;;12.90;9.82;;;;;;;4.88;93.10;98465.03;4157799;28;20288;-89
2022/12/20 05:17:58;;;;;;;19.85;9.68;;;;;;;4.88;93.53;98476.19;4159724;28;20220;-89
2022/12/20 05:20:07;;;;;;;11.90;8.93;;;;;;;4.88;92.52;98475.38;4142375;28;20211;-89
2022/12/20 05:27:07;;;;;;;11.60;8.63;;;;;;;4.92;92.97;98462.25;4161629;28;20212;-89
2022/12/20 05:29:11;;;;;;;13.65;9.30;;;;;;;4.92;92.59;98470.00;4178225;28;20220;-89
2022/12/20 05:31:15;;;;;;;12.23;8.98;;;;;;;4.92;92.43;98466.59;4174735;28;20292;-89
2022/12/20 05:33:18;;;;;;;11.55;9.07;;;;;;;4.91;92.80;98470.06;4156999;28;20211;-89
2022/12/20 05:35:22;;;;;;;11.82;8.55;;;;;;;4.92;93.34;98471.78;4140687;28;20645;-88
2022/12/20 05:37:31;;;;;;;12.00;8.95;;;;;;;4.94;92.63;98469.97;4157488;28;20207;-88
2022/12/20 05:39:41;;;;;;;12.05;8.50;;;;;;;4.94;92.83;98470.78;4140466;28;20201;-90
2022/12/20 05:41:52;;;;;;;10.27;8.80;;;;;;;4.94;92.97;98459.63;4191867;28;20244;-89
2022/12/20 05:43:57;;;;;;;13.77;8.95;;;;;;;4.96;93.36;98466.41;4160305;28;20206;-89
2022/12/20 05:46:02;;;;;;;10.60;9.00;;;;;;;4.97;92.53;98459.50;4159085;28;20222;-89
2022/12/20 05:48:16;;;;;;;13.15;9.05;;;;;;;4.96;92.55;98469.00;4155564;28;20375;-89
2022/12/20 05:50:19;;;;;;;13.35;9.60;;;;;;;4.97;93.27;98465.50;4158708;28;20654;-88
2022/12/20 05:52:54;;;;;;;12.82;9.07;;;;;;;4.96;93.23;98469.00;4167911;28;20250;-89
2022/12/20 05:55:02;;;;;;;12.23;9.88;;;;;;;4.97;93.02;98477.59;4154783;28;20242;-89
2022/12/20 05:57:05;;;;;;;10.98;8.75;;;;;;;4.97;93.16;98473.25;4169556;28;20593;-89
2022/12/20 05:59:16;;;;;;;11.77;8.65;;;;;;;4.99;93.46;98462.84;4171873;28;20205;-89
2022/12/20 06:01:21;;;;;;;13.23;9.02;;;;;;;5.01;93.20;98464.47;4143095;28;20211;-88
2022/12/20 06:03:29;;;;;;;11.40;8.90;;;;;;;5.01;92.92;98451.56;4154293;28;20225;-88
2022/12/20 06:05:34;;;;;;;11.93;8.00;;;;;;;5.03;93.41;98452.31;4188658;28;20202;-88
2022/12/20 06:07:37;;;;;;;11.60;8.27;;;;;;;5.05;93.42;98437.63;4173334;28;20203;-89
2022/12/20 06:09:40;;;;;;;11.50;8.70;;;;;;;5.05;93.75;98445.38;4143118;28;20261;-88
2022/12/20 06:11:48;;;;;;;13.80;8.43;;;;;;;5.06;93.32;98438.44;4156908;28;20210;-89
2022/12/20 06:13:51;;;;;;;14.27;8.40;;;;;;;5.07;93.01;98445.31;4153451;28;20212;-87
2022/12/20 06:15:54;;;;;;;11.35;8.70;;;;;;;5.09;93.09;98443.50;4144394;28;20300;-89
2022/12/20 06:17:58;;;;;;;10.10;8.35;;;;;;;5.08;93.33;98442.63;4158616;28;20209;-89
2022/12/20 06:20:02;;;;;;;10.82;8.73;;;;;;;5.10;93.15;98442.56;4161846;28;20203;-89
2022/12/20 06:22:05;;;;;;;12.07;8.45;;;;;;;5.12;93.37;98445.94;4170555;28;20298;-89
2022/12/20 06:24:24;;;;;;;10.57;8.20;;;;;;;5.13;93.32;98452.78;4184341;28;20700;-89
2022/12/20 06:26:34;;;;;;;11.45;8.30;;;;;;;5.12;92.69;98456.28;4143798;28;20204;-88
2022/12/20 06:28:41;;;;;;;10.27;7.60;;;;;;;5.13;93.47;98469.16;4155064;28;20201;-88
2022/12/20 06:31:00;;;;;;;10.80;8.30;;;;;;;5.13;93.59;98456.22;4166608;28;20210;-88
2022/12/20 06:33:14;;;;;;;10.88;7.90;;;;;;;5.14;93.17;98458.75;4169456;28;20594;-87
2022/12/20 06:35:20;;;;;;;11.48;8.63;;;;;;;5.15;92.93;98454.41;4159394;28;20694;-88
2022/12/20 06:37:24;;;;;;;12.82;8.60;;;;;;;5.17;93.28;98460.34;4135472;28;20207;-87
2022/12/20 06:39:27;;;;;;;10.30;8.27;;;;;;;5.19;93.51;98451.63;4139258;28;20295;-86
2022/12/20 06:41:37;;;;;;;12.27;7.60;;;;;;;5.19;93.82;98454.22;4172164;28;20199;-88
2022/12/20 06:43:40;;;;;;;10.98;8.13;;;;;;;5.20;93.49;98455.06;4141299;28;20688;-87
2022/12/20 06:45:44;;;;;;;9.68;8.00;;;;;;;5.21;93.69;98456.75;4184690;28;20220;-87
2022/12/20 06:47:47;;;;;;;10.88;8.55;;;;;;;5.22;93.44;98463.59;4171766;28;20211;-86
2022/12/20 06:49:51;;;;;;;9.23;7.85;;;;;;;5.24;93.12;98472.13;4165146;28;20256;-86
2022/12/20 06:51:58;;;;;;;9.75;7.70;;;;;;;5.23;93.22;98466.13;4171490;28;20218;-88
2022/12/20 06:54:18;;;;;;;10.93;7.75;;;;;;;5.24;93.32;98465.19;4150647;28;20218;-87
2022/12/20 06:56:40;;;;;;;11.70;9.25;;;;;;;5.24;93.69;98470.38;4166638;28;20620;-87
2022/12/20 06:58:46;;;;;;;12.50;7.97;;;;;;;5.27;93.00;98469.41;4185512;28;20243;-87
2022/12/20 07:00:49;;;;;;;9.77;7.75;;;;;;;5.26;93.08;98471.16;4172308;28;20283;-87
2022/12/20 07:02:53;;;;;;;9.85;7.70;;;;;;;5.27;93.14;98467.66;4158561;28;20219;-86
2022/12/20 07:04:56;;;;;;;10.50;8.55;;;;;;;5.29;93.09;98470.19;4158336;28;20262;-86
2022/12/20 07:07:01;;;;;;;11.30;8.63;;;;;;;5.28;93.14;98471.94;4136600;28;20762;-86
2022/12/20 07:09:04;;;;;;;12.40;9.20;;;;;;;5.29;93.46;98483.97;4166995;28;20223;-86
2022/12/20 07:11:08;;;;;;;15.48;9.30;;;;;;;5.28;93.29;98474.53;4155071;28;20246;-87
2022/12/20 07:13:11;;;;;;;14.93;9.57;;;;;;;5.28;93.21;98479.69;4136093;28;20716;-87
2022/12/20 07:15:14;;;;;;;11.50;8.65;;;;;;;5.28;93.19;98482.28;4136762;28;20259;-86
2022/12/20 07:17:17;;;;;;;9.80;8.75;;;;;;;5.29;92.84;98489.13;4165866;28;20215;-86
2022/12/20 07:19:21;;;;;;;11.45;8.63;;;;;;;5.28;93.06;98481.44;4188166;28;20239;-87
2022/12/20 07:21:24;;;;;;;11.73;8.48;;;;;;;5.28;92.93;98471.09;4154463;28;20206;-87
2022/12/20 07:23:29;;;;;;;12.43;8.75;;;;;;;5.26;93.09;98473.75;4140917;28;20213;-87
2022/12/20 07:25:32;;;;;;;14.32;8.68;;;;;;;5.27;93.09;98470.25;4170225;28;20652;-86
2022/12/20 07:27:35;;;;;;;11.75;7.85;;;;;;;5.28;93.07;98471.94;4145583;28;20231;-87
2022/12/20 07:29:39;;;;;;;10.65;8.75;;;;;;;5.30;92.41;98474.47;4160325;28;20226;-86
2022/12/20 07:31:42;;;;;;;10.40;8.32;;;;;;;5.31;92.53;98469.22;4159712;28;20697;-86
2022/12/20 07:33:45;;;;;;;12.15;8.93;;;;;;;5.31;92.84;98468.41;4159572;28;20306;-87
2022/12/20 07:35:48;;;;;;;11.73;8.30;;;;;;;5.34;92.76;98465.69;4138397;28;20234;-87
2022/12/20 07:37:56;;;;;;;10.95;7.60;;;;;;;5.34;93.28;98461.34;4156575;28;20218;-87
2022/12/20 07:40:01;;;;;;;9.75;8.10;;;;;;;5.37;93.10;98468.97;4152231;28;20235;-86
2022/12/20 07:42:04;;;;;;;10.32;8.32;;;;;;;5.39;93.34;98471.50;4151431;28;20676;-87
2022/12/20 07:44:16;;;;;;;11.45;8.77;;;;;;;5.38;92.88;98473.25;4167150;28;20207;-87
2022/12/20 07:46:20;;;;;;;12.40;8.88;;;;;;;5.38;92.79;98470.66;4137585;28;20475;-86
2022/12/20 07:48:24;;;;;;;12.23;9.10;;;;;;;5.37;92.90;98481.91;4169597;28;20307;-87
2022/12/20 07:50:28;;;;;;;13.48;10.07;;;;;;;5.41;92.71;98482.59;4164007;28;20223;-87
2022/12/20 07:52:33;;;;;;;13.65;10.38;;;;;;;5.41;92.72;98475.72;4151069;28;20629;-86
2022/12/20 07:54:38;;;;;;;14.60;10.38;;;;;;;5.42;93.04;98473.94;4164952;28;20203;-86
2022/12/20 07:56:45;;;;;;;18.77;11.90;;;;;;;5.42;93.00;98474.78;4159829;28;20210;-86
2022/12/20 07:58:50;;;;;;;14.20;11.35;;;;;;;5.44;92.31;98473.00;4138322;28;20203;-86
2022/12/20 08:00:54;;;;;;;16.88;12.60;;;;;;;5.47;92.51;98472.00;4146434;28;20659;-85
2022/12/20 08:03:02;;;;;;;15.13;11.65;;;;;;;5.48;92.73;98464.19;4148121;28;20214;-86
2022/12/20 08:05:07;;;;;;;15.85;12.45;;;;;;;5.53;93.02;98472.56;4126526;28;20273;-86
2022/12/20 08:07:11;;;;;;;20.38;12.35;;;;;;;5.54;92.86;98474.28;4129537;28;20203;-86
2022/12/20 08:09:15;;;;;;;18.27;12.75;;;;;;;5.57;93.38;98474.13;4156964;28;20230;-86
2022/12/20 08:11:18;;;;;;;16.13;11.65;;;;;;;5.59;92.90;98477.50;4153723;28;20557;-86
2022/12/20 08:13:22;;;;;;;15.73;11.52;;;;;;;5.63;92.63;98477.28;4152423;28;20678;-86
2022/12/20 08:15:26;;;;;;;15.80;10.38;;;;;;;5.68;92.63;98482.28;4159664;28;20774;-86
2022/12/20 08:17:29;;;;;;;13.75;10.88;;;;;;;5.70;92.77;98475.31;4150360;28;20309;-86
2022/12/20 08:19:32;;;;;;;15.63;10.45;;;;;;;5.72;92.59;98483.84;4154628;28;20207;-86
2022/12/20 08:21:35;;;;;;;18.15;11.30;;;;;;;5.72;92.48;98489.84;4162396;28;20247;-86
2022/12/20 08:23:38;;;;;;;14.32;10.63;;;;;;;5.75;92.52;98488.91;4173539;28;20210;-86
2022/12/20 08:25:41;;;;;;;17.10;12.00;;;;;;;5.75;92.37;98481.16;4189492;28;20216;-86
2022/12/20 08:27:45;;;;;;;15.35;10.85;;;;;;;5.76;92.17;98475.06;4155562;28;20240;-86
2022/12/20 08:29:49;;;;;;;16.70;11.85;;;;;;;5.78;92.18;98479.25;4159324;28;20318;-86
2022/12/20 08:31:56;;;;;;;16.60;11.45;;;;;;;5.80;92.39;98468.84;4155034;28;20816;-86
2022/12/20 08:33:59;;;;;;;14.38;11.05;;;;;;;5.82;92.56;98469.63;4190293;28;20245;-86
2022/12/20 08:36:04;;;;;;;18.33;14.15;;;;;;;5.84;92.20;98460.06;4160007;28;20239;-86
2022/12/20 08:38:07;;;;;;;28.40;17.10;;;;;;;5.86;92.11;98460.81;4147327;28;20590;-86
2022/12/20 08:40:13;;;;;;;31.48;19.33;;;;;;;5.87;92.19;98455.56;4160856;28;20216;-86
2022/12/20 08:42:16;;;;;;;29.85;17.73;;;;;;;5.90;92.09;98446.84;4173283;28;20213;-86
2022/12/20 08:44:22;;;;;;;17.80;11.75;;;;;;;5.92;92.18;98445.84;4185340;28;20215;-86
2022/12/20 08:46:26;;;;;;;17.63;11.63;;;;;;;5.91;91.74;98438.16;4159263;28;20209;-86
2022/12/20 08:48:30;;;;;;;18.38;13.32;;;;;;;5.91;91.98;98439.00;4153382;28;20253;-86
2022/12/20 08:50:35;;;;;;;22.33;16.10;;;;;;;5.93;91.75;98441.53;4154037;28;20738;-86
2022/12/20 08:52:39;;;;;;;30.70;18.80;;;;;;;5.96;91.90;98441.41;4187323;28;20632;-86
2022/12/20 08:54:42;;;;;;;39.05;22.40;;;;;;;5.96;91.79;98439.63;4155696;28;20651;-86
2022/12/20 08:56:45;;;;;;;34.40;21.55;;;;;;;5.96;91.89;98439.63;4154355;28;20221;-86
2022/12/20 08:58:48;;;;;;;27.15;18.13;;;;;;;5.96;91.64;98441.41;4169846;28;20600;-86
2022/12/20 09:00:51;;;;;;;26.10;18.77;;;;;;;5.96;91.98;98433.63;4166914;28;20194;-87
2022/12/20 09:02:55;;;;;;;27.05;16.48;;;;;;;5.95;92.01;98426.78;4156581;28;20212;-86
2022/12/20 09:04:58;;;;;;;20.30;14.07;;;;;;;5.96;91.51;98420.69;4156886;28;20310;-86
2022/12/20 09:07:02;;;;;;;17.35;12.68;;;;;;;5.98;91.60;98429.22;4158880;28;20224;-86
2022/12/20 09:09:05;;;;;;;21.50;14.10;;;;;;;5.99;91.36;98416.22;4168826;28;20323;-86
2022/12/20 09:11:11;;;;;;;16.90;13.43;;;;;;;6.02;91.77;98421.25;4150682;28;20240;-86
2022/12/20 09:13:14;;;;;;;16.77;13.02;;;;;;;6.02;91.47;98421.25;4157390;28;20196;-86
2022/12/20 09:15:17;;;;;;;20.48;14.10;;;;;;;6.05;91.40;98425.47;4160461;28;20217;-86
2022/12/20 09:17:20;;;;;;;16.88;12.88;;;;;;;6.06;91.37;98425.38;4166834;28;20698;-86
2022/12/20 09:19:25;;;;;;;15.38;12.38;;;;;;;6.09;91.41;98423.50;4155967;28;20312;-86
2022/12/20 09:21:28;;;;;;;21.13;15.02;;;;;;;6.13;91.25;98419.00;4160260;28;20712;-86
2022/12/20 09:23:32;;;;;;;20.05;13.40;;;;;;;6.16;91.58;98411.97;4151411;28;20203;-86
2022/12/20 09:25:37;;;;;;;20.90;14.40;;;;;;;6.18;91.69;98409.31;4157792;28;20210;-86
2022/12/20 09:27:40;;;;;;;22.35;13.85;;;;;;;6.17;91.43;98418.78;4150622;28;20603;-86
2022/12/20 09:29:43;;;;;;;18.38;14.18;;;;;;;6.18;91.27;98424.84;4154500;28;20216;-86
2022/12/20 09:31:46;;;;;;;21.02;15.93;;;;;;;6.20;91.84;98421.25;4153736;28;20226;-86
2022/12/20 09:33:49;;;;;;;18.85;14.00;;;;;;;6.23;91.29;98410.75;4155971;28;20236;-86
2022/12/20 09:35:54;;;;;;;19.13;14.77;;;;;;;6.26;91.37;98408.03;4155687;28;20214;-86
2022/12/20 09:37:58;;;;;;;21.05;14.85;;;;;;;6.30;91.71;98398.34;4156642;28;20257;-86
2022/12/20 09:40:01;;;;;;;25.73;17.33;;;;;;;6.34;91.45;98395.53;4159234;28;20208;-86
2022/12/20 09:42:08;;;;;;;24.77;17.10;;;;;;;6.37;91.45;98403.16;4154767;28;20209;-86
2022/12/20 09:44:16;;;;;;;21.25;14.70;;;;;;;6.42;91.79;98415.91;4139850;28;20288;-86
2022/12/20 09:46:19;;;;;;;19.80;14.52;;;;;;;6.47;91.42;98417.38;4153932;28;20213;-86
2022/12/20 09:48:25;;;;;;;17.20;13.98;;;;;;;6.52;91.99;98418.00;4180256;28;20203;-86
2022/12/20 09:50:40;;;;;;;21.15;14.35;;;;;;;6.57;92.04;98413.47;4157048;28;20252;-86
2022/12/20 09:52:55;;;;;;;19.65;14.13;;;;;;;6.60;91.56;98408.13;4151647;28;20773;-86
2022/12/20 09:55:08;;;;;;;22.85;17.55;;;;;;;6.58;91.12;98409.94;4186093;28;20236;-86
2022/12/20 09:57:19;;;;;;;55.47;31.55;;;;;;;6.60;92.16;98408.13;4159976;28;20632;-86
2022/12/20 09:59:41;;;;;;;50.38;32.53;;;;;;;6.63;91.45;98406.22;4144310;28;20219;-87